Time;durP1;ratioP1;P1;durP2;ratioP2;P2;SDS_P1;SDS_P2;PMS_P1;PMS_P2;Temp;Humidity;BMP_temperature;BMP_pressure;BME280_temperature;BME280_humidity;BME280_pressure;Samples;Min_cycle;Max_cycle;Signal;HPM_P1;HPM_P2
2022/07/22 00:02:14;;;;;;;7.60;2.88;;;18.40;67.40;;;;;;5052901;28;20068;-69
2022/07/22 00:04:40;;;;;;;4.00;1.40;;;18.40;67.30;;;;;;5051009;28;20142;-69
2022/07/22 00:07:06;;;;;;;6.65;2.30;;;18.40;67.40;;;;;;5051616;28;20055;-69
2022/07/22 00:09:32;;;;;;;6.30;1.95;;;18.40;67.40;;;;;;5031688;28;20426;-69
2022/07/22 00:11:58;;;;;;;4.80;1.90;;;18.40;67.40;;;;;;5040170;28;20041;-68
2022/07/22 00:14:23;;;;;;;7.50;2.28;;;18.40;67.40;;;;;;5050688;28;20044;-68
2022/07/22 00:16:49;;;;;;;8.75;2.38;;;18.40;67.40;;;;;;5051707;28;20045;-68
2022/07/22 00:19:15;;;;;;;4.80;1.63;;;18.40;67.30;;;;;;5034702;28;20033;-68
2022/07/22 00:21:40;;;;;;;4.15;1.77;;;18.40;67.30;;;;;;5052710;28;20040;-68
2022/07/22 00:24:06;;;;;;;5.63;2.05;;;18.40;67.30;;;;;;5051208;28;20106;-68
2022/07/22 00:26:32;;;;;;;6.45;1.63;;;18.40;67.20;;;;;;5051662;28;20485;-68
2022/07/22 00:28:57;;;;;;;6.25;2.08;;;18.40;67.20;;;;;;5051871;28;20049;-68
2022/07/22 00:31:23;;;;;;;5.53;1.67;;;18.40;67.10;;;;;;5017948;28;20049;-67
2022/07/22 00:33:49;;;;;;;5.10;2.22;;;18.40;67.00;;;;;;5050857;28;20041;-68
2022/07/22 00:36:14;;;;;;;3.85;1.60;;;18.40;67.40;;;;;;5051344;28;20033;-68
2022/07/22 00:38:40;;;;;;;5.63;1.95;;;18.40;67.00;;;;;;5035621;28;20402;-68
2022/07/22 00:41:06;;;;;;;5.10;1.83;;;18.40;66.80;;;;;;5018880;28;20048;-69
2022/07/22 00:44:00;;;;;;;6.13;2.13;;;18.40;66.70;;;;;;5055623;28;20033;-68
2022/07/22 00:46:27;;;;;;;5.28;1.58;;;18.40;66.50;;;;;;5055122;28;20036;-68
2022/07/22 00:48:54;;;;;;;4.97;1.95;;;18.40;66.60;;;;;;5056742;28;20053;-68
2022/07/22 00:51:21;;;;;;;6.35;1.73;;;18.40;66.50;;;;;;5055134;28;20162;-68
2022/07/22 00:53:47;;;;;;;6.35;1.90;;;18.40;66.50;;;;;;5054358;28;20080;-68
2022/07/22 00:56:14;;;;;;;4.18;1.75;;;18.40;66.50;;;;;;5055351;28;20092;-68
2022/07/22 00:58:40;;;;;;;5.30;1.50;;;18.40;66.50;;;;;;5056497;28;20123;-69
2022/07/22 01:01:06;;;;;;;6.00;2.03;;;18.40;66.40;;;;;;5056179;28;20064;-68
2022/07/22 01:03:32;;;;;;;6.82;1.58;;;18.40;66.50;;;;;;5054415;28;20049;-68
2022/07/22 01:05:58;;;;;;;4.85;1.70;;;18.40;66.50;;;;;;5054746;28;20044;-69
2022/07/22 01:08:23;;;;;;;5.55;1.80;;;18.40;66.50;;;;;;5055058;28;20052;-68
2022/07/22 01:10:49;;;;;;;4.13;1.77;;;18.40;66.40;;;;;;5056089;28;20028;-68
2022/07/22 01:13:15;;;;;;;3.78;1.70;;;18.40;66.40;;;;;;5042553;28;20041;-68
2022/07/22 01:15:41;;;;;;;3.60;1.60;;;18.40;66.30;;;;;;5054084;28;20044;-68
2022/07/22 01:18:07;;;;;;;5.80;1.73;;;18.40;66.30;;;;;;5055026;28;20037;-67
2022/07/22 01:20:34;;;;;;;4.70;1.90;;;18.40;66.20;;;;;;5054693;28;20033;-67
2022/07/22 01:22:59;;;;;;;4.88;1.70;;;18.40;66.10;;;;;;5041673;28;20120;-67
2022/07/22 01:25:25;;;;;;;3.63;1.75;;;18.40;66.00;;;;;;5055653;28;20115;-67
2022/07/22 01:27:51;;;;;;;4.45;1.60;;;18.40;65.90;;;;;;5056134;28;20114;-67
2022/07/22 01:30:17;;;;;;;5.82;1.55;;;18.40;65.90;;;;;;5054092;28;20041;-67
2022/07/22 01:32:42;;;;;;;6.05;2.17;;;18.30;65.80;;;;;;5055323;28;20032;-64
2022/07/22 01:35:08;;;;;;;4.90;2.13;;;18.30;65.80;;;;;;5053537;28;20107;-63
2022/07/22 01:37:34;;;;;;;4.40;1.80;;;18.30;65.70;;;;;;5053903;28;20051;-64
2022/07/22 01:40:00;;;;;;;3.75;1.50;;;18.30;65.90;;;;;;5054667;28;20382;-64
2022/07/22 01:42:26;;;;;;;4.85;1.88;;;18.30;65.80;;;;;;5053880;28;20529;-63
2022/07/22 01:44:52;;;;;;;3.28;1.38;;;18.30;65.80;;;;;;5054249;28;20060;-67
2022/07/22 01:47:17;;;;;;;5.43;1.98;;;18.30;65.80;;;;;;5037187;28;20045;-67
2022/07/22 01:49:43;;;;;;;3.83;1.50;;;18.30;65.80;;;;;;5055550;28;20044;-67
2022/07/22 01:52:09;;;;;;;4.82;1.58;;;18.30;65.80;;;;;;5053781;28;20125;-68
2022/07/22 01:54:35;;;;;;;3.55;1.30;;;18.30;65.90;;;;;;5042580;28;20124;-68
2022/07/22 01:57:01;;;;;;;6.10;1.88;;;18.30;65.90;;;;;;5046650;28;20370;-69
2022/07/22 01:59:27;;;;;;;5.03;1.50;;;18.30;65.80;;;;;;5054846;28;20040;-69
2022/07/22 02:01:52;;;;;;;3.83;1.63;;;18.30;66.20;;;;;;5053778;28;20053;-69
2022/07/22 02:04:18;;;;;;;5.38;1.52;;;18.30;65.80;;;;;;5028420;28;20106;-69
2022/07/22 02:06:44;;;;;;;3.20;1.27;;;18.30;65.90;;;;;;5053583;28;20051;-68
2022/07/22 02:09:09;;;;;;;5.47;1.50;;;18.30;65.80;;;;;;5053479;28;20076;-68
2022/07/22 02:11:35;;;;;;;5.57;1.70;;;18.30;65.80;;;;;;5054680;28;20103;-69
2022/07/22 02:14:01;;;;;;;3.85;1.50;;;18.30;65.80;;;;;;5053158;28;20045;-69
2022/07/22 02:16:27;;;;;;;2.85;1.42;;;18.30;66.00;;;;;;5053950;28;20063;-68
2022/07/22 02:18:53;;;;;;;4.82;1.73;;;18.30;65.80;;;;;;5052332;28;20048;-69
2022/07/22 02:21:20;;;;;;;3.85;1.50;;;18.30;65.70;;;;;;5053449;28;20037;-69
2022/07/22 02:23:46;;;;;;;3.80;1.42;;;18.30;65.80;;;;;;5052987;28;20135;-69
2022/07/22 02:26:11;;;;;;;3.88;1.95;;;18.30;65.80;;;;;;5053537;28;20060;-68
2022/07/22 02:28:37;;;;;;;4.85;1.80;;;18.30;65.80;;;;;;5053704;28;20127;-68
2022/07/22 02:31:03;;;;;;;2.42;1.45;;;18.30;65.80;;;;;;5053308;28;20383;-68
2022/07/22 02:33:32;;;;;;;5.03;1.70;;;18.30;65.80;;;;;;5052912;28;20124;-68
2022/07/22 02:35:58;;;;;;;3.90;1.50;;;18.30;65.80;;;;;;5053671;28;20041;-68
2022/07/22 02:38:23;;;;;;;4.10;1.60;;;18.30;65.80;;;;;;5053164;28;20539;-68
2022/07/22 02:40:49;;;;;;;4.50;1.77;;;18.30;65.80;;;;;;5054368;28;20070;-68
2022/07/22 02:43:15;;;;;;;4.40;1.65;;;18.30;65.70;;;;;;5053261;28;20128;-68
2022/07/22 02:45:40;;;;;;;4.28;1.63;;;18.30;65.70;;;;;;5053001;28;20052;-68
2022/07/22 02:48:06;;;;;;;4.93;1.75;;;18.30;65.70;;;;;;5053975;28;20062;-68
2022/07/22 02:50:36;;;;;;;5.00;1.65;;;18.30;65.80;;;;;;5052956;28;20549;-68
2022/07/22 02:53:02;;;;;;;4.80;1.33;;;18.30;65.70;;;;;;5053272;28;20119;-68
2022/07/22 02:55:27;;;;;;;3.15;1.50;;;18.30;65.70;;;;;;5052819;28;20063;-68
2022/07/22 02:57:53;;;;;;;2.63;1.10;;;18.30;65.60;;;;;;5052456;28;20044;-68
2022/07/22 03:00:19;;;;;;;4.75;1.40;;;18.30;65.60;;;;;;5041330;28;20470;-68
2022/07/22 03:02:45;;;;;;;3.42;1.48;;;18.30;65.60;;;;;;5042007;28;20529;-68
2022/07/22 03:05:10;;;;;;;5.97;1.90;;;18.30;65.60;;;;;;5052752;28;20056;-68
2022/07/22 03:07:36;;;;;;;4.07;2.08;;;18.30;65.60;;;;;;5049429;28;20540;-68
2022/07/22 03:10:03;;;;;;;3.92;1.35;;;18.30;65.50;;;;;;5045063;28;20125;-68
2022/07/22 03:12:29;;;;;;;4.30;1.55;;;18.30;65.50;;;;;;5052814;28;20041;-68
2022/07/22 03:14:54;;;;;;;3.95;1.50;;;18.30;65.40;;;;;;5035008;28;20045;-68
2022/07/22 03:17:20;;;;;;;5.40;1.88;;;18.30;65.40;;;;;;5036914;28;20040;-68
2022/07/22 03:19:46;;;;;;;4.70;1.42;;;18.30;65.40;;;;;;5052396;28;20051;-68
2022/07/22 03:22:11;;;;;;;3.75;1.60;;;18.30;65.40;;;;;;5052476;28;20056;-68
2022/07/22 03:24:37;;;;;;;4.63;1.60;;;18.30;65.50;;;;;;5049066;28;20037;-69
2022/07/22 03:27:03;;;;;;;3.85;1.50;;;18.30;65.50;;;;;;5032620;28;20049;-69
2022/07/22 03:29:28;;;;;;;5.47;1.83;;;18.30;65.50;;;;;;5035526;28;20043;-68
2022/07/22 03:31:54;;;;;;;4.20;1.40;;;18.30;65.50;;;;;;5052160;28;20048;-68
2022/07/22 03:34:20;;;;;;;3.38;1.42;;;18.30;65.50;;;;;;5051329;28;20043;-68
2022/07/22 03:36:45;;;;;;;5.93;1.92;;;18.30;65.50;;;;;;5051642;28;20041;-68
2022/07/22 03:39:12;;;;;;;6.15;1.50;;;18.30;65.40;;;;;;5051989;28;20045;-68
2022/07/22 03:41:37;;;;;;;3.97;1.65;;;18.30;65.40;;;;;;5052248;28;20091;-68
2022/07/22 03:44:03;;;;;;;3.65;1.40;;;18.30;65.40;;;;;;5051594;28;20448;-68
2022/07/22 03:46:29;;;;;;;4.18;1.60;;;18.30;65.30;;;;;;5039275;28;20124;-68
2022/07/22 03:48:54;;;;;;;4.30;1.50;;;18.30;65.30;;;;;;5024993;28;20498;-68
2022/07/22 03:51:20;;;;;;;5.55;1.80;;;18.30;65.30;;;;;;5052010;28;20457;-64
2022/07/22 03:53:45;;;;;;;5.00;1.80;;;18.20;65.10;;;;;;5050654;28;20423;-64
2022/07/22 03:56:11;;;;;;;6.20;1.90;;;18.20;64.80;;;;;;5053004;28;20409;-64
2022/07/22 03:58:37;;;;;;;4.32;1.80;;;18.20;64.60;;;;;;5051601;28;20037;-64
2022/07/22 04:01:03;;;;;;;5.25;1.52;;;18.20;64.50;;;;;;5051603;28;20063;-64
2022/07/22 04:03:30;;;;;;;6.93;2.10;;;18.20;64.50;;;;;;5065244;28;20057;-65
2022/07/22 04:05:55;;;;;;;4.35;1.83;;;18.10;64.30;;;;;;5052784;28;20033;-64
2022/07/22 04:08:21;;;;;;;6.15;1.60;;;18.20;64.40;;;;;;5052670;28;20121;-64
2022/07/22 04:10:46;;;;;;;3.70;1.20;;;18.10;64.40;;;;;;5052565;28;20041;-64
2022/07/22 04:13:12;;;;;;;6.35;2.22;;;18.10;64.40;;;;;;5051340;28;20045;-64
2022/07/22 04:15:38;;;;;;;2.33;1.33;;;18.20;64.60;;;;;;5049736;28;20393;-64
2022/07/22 04:18:04;;;;;;;4.55;1.58;;;18.10;64.50;;;;;;5068300;28;20044;-64
2022/07/22 04:20:29;;;;;;;3.75;1.58;;;18.10;64.50;;;;;;5051077;28;20037;-64
2022/07/22 04:22:55;;;;;;;5.15;1.45;;;18.10;64.30;;;;;;5052519;28;20044;-64
2022/07/22 04:25:21;;;;;;;3.20;1.38;;;18.10;64.20;;;;;;5050888;28;20142;-64
2022/07/22 04:27:46;;;;;;;3.63;1.52;;;18.10;64.30;;;;;;5051775;28;20110;-64
2022/07/22 04:30:12;;;;;;;3.83;1.55;;;18.10;64.20;;;;;;5051064;28;20402;-64
2022/07/22 04:32:38;;;;;;;3.35;1.65;;;18.10;64.20;;;;;;5052110;28;20045;-64
2022/07/22 04:35:04;;;;;;;4.28;1.38;;;18.10;64.10;;;;;;5051841;28;20118;-64
2022/07/22 04:37:30;;;;;;;6.45;1.73;;;18.10;64.10;;;;;;5034486;28;20044;-64
2022/07/22 04:39:56;;;;;;;2.80;1.25;;;18.10;64.10;;;;;;5051036;28;20397;-64
2022/07/22 04:42:21;;;;;;;2.55;1.55;;;18.10;64.10;;;;;;5059734;28;20099;-64
2022/07/22 04:44:47;;;;;;;2.60;1.20;;;18.10;64.10;;;;;;5059313;28;20044;-65
2022/07/22 04:47:13;;;;;;;5.68;1.63;;;18.10;64.20;;;;;;5018269;28;20076;-64
2022/07/22 04:49:39;;;;;;;4.28;1.30;;;18.10;64.10;;;;;;5051323;28;20048;-64
2022/07/22 04:52:04;;;;;;;3.80;1.30;;;18.10;64.10;;;;;;5052151;28;20037;-64
2022/07/22 04:54:30;;;;;;;3.47;1.75;;;18.10;64.10;;;;;;5051599;28;20502;-64
2022/07/22 04:56:56;;;;;;;3.90;1.65;;;18.10;64.10;;;;;;5051035;28;20097;-65
2022/07/22 04:59:21;;;;;;;3.08;1.42;;;18.10;64.20;;;;;;5050581;28;20124;-65
2022/07/22 05:01:47;;;;;;;4.60;1.40;;;18.10;64.20;;;;;;5039797;28;20064;-64
2022/07/22 05:04:13;;;;;;;2.47;1.35;;;18.10;64.20;;;;;;5050427;28;20064;-64
2022/07/22 05:06:39;;;;;;;3.88;1.20;;;18.20;64.30;;;;;;5050971;28;20061;-65
2022/07/22 05:09:04;;;;;;;3.05;1.40;;;18.20;64.30;;;;;;5067359;28;20047;-65
2022/07/22 05:11:30;;;;;;;4.10;1.40;;;18.20;64.80;;;;;;5050910;28;20056;-65
2022/07/22 05:13:56;;;;;;;3.25;1.35;;;18.20;64.20;;;;;;5049738;28;20187;-65
2022/07/22 05:16:21;;;;;;;3.10;1.42;;;18.20;64.10;;;;;;5050871;28;20551;-65
2022/07/22 05:18:47;;;;;;;4.35;1.52;;;18.20;64.10;;;;;;5050017;28;20072;-64
2022/07/22 05:21:13;;;;;;;5.15;1.90;;;18.20;64.10;;;;;;5051968;28;20124;-65
2022/07/22 05:23:38;;;;;;;2.33;1.35;;;18.20;64.10;;;;;;5053531;28;20048;-64
2022/07/22 05:26:05;;;;;;;5.00;1.75;;;18.20;64.10;;;;;;5053138;28;20094;-65
2022/07/22 05:28:31;;;;;;;2.47;1.38;;;18.20;64.00;;;;;;5054627;28;20428;-65
2022/07/22 05:30:56;;;;;;;3.92;1.40;;;18.20;64.00;;;;;;5054042;28;20044;-65
2022/07/22 05:33:22;;;;;;;3.40;1.30;;;18.20;63.90;;;;;;5054185;28;20060;-65
2022/07/22 05:35:47;;;;;;;3.58;1.60;;;18.20;63.90;;;;;;5054278;28;20043;-65
2022/07/22 05:38:13;;;;;;;5.57;1.60;;;18.20;63.90;;;;;;5054757;28;20043;-65
2022/07/22 05:40:39;;;;;;;3.42;1.60;;;18.20;63.90;;;;;;5054153;28;20367;-64
2022/07/22 05:43:05;;;;;;;2.80;1.40;;;18.20;63.80;;;;;;5034192;28;20071;-65
2022/07/22 05:45:31;;;;;;;3.60;1.50;;;18.20;63.80;;;;;;5050462;28;20458;-64
2022/07/22 05:47:57;;;;;;;5.22;1.65;;;18.20;63.70;;;;;;5053410;28;20087;-64
2022/07/22 05:50:22;;;;;;;3.90;1.38;;;18.30;63.70;;;;;;5053114;28;20032;-64
2022/07/22 05:52:48;;;;;;;3.30;1.48;;;18.20;63.60;;;;;;5054531;28;20040;-64
2022/07/22 05:55:14;;;;;;;3.55;1.50;;;18.30;63.70;;;;;;5053662;28;20045;-64
2022/07/22 05:57:39;;;;;;;3.78;1.27;;;18.30;63.60;;;;;;5053951;28;20045;-64
2022/07/22 06:00:06;;;;;;;4.82;1.88;;;18.30;63.60;;;;;;5052440;28;20060;-64
2022/07/22 06:02:32;;;;;;;3.92;1.65;;;18.30;63.70;;;;;;5048975;28;20127;-64
2022/07/22 06:05:00;;;;;;;6.47;1.60;;;18.30;63.40;;;;;;5053598;28;20049;-64
2022/07/22 06:07:26;;;;;;;4.55;1.58;;;18.30;63.40;;;;;;5065394;28;20044;-64
2022/07/22 06:09:52;;;;;;;2.40;1.27;;;18.30;63.30;;;;;;5052788;28;20049;-64
2022/07/22 06:12:18;;;;;;;3.58;1.70;;;18.30;63.40;;;;;;5053565;28;20112;-64
2022/07/22 06:14:46;;;;;;;4.35;1.58;;;18.30;63.40;;;;;;5052916;28;20049;-64
2022/07/22 06:17:12;;;;;;;3.05;1.17;;;18.30;63.30;;;;;;5053831;28;20037;-64
2022/07/22 06:19:37;;;;;;;7.97;1.90;;;18.30;63.30;;;;;;5053297;28;20094;-64
2022/07/22 06:22:03;;;;;;;6.80;1.80;;;18.30;63.40;;;;;;5052177;28;20041;-64
2022/07/22 06:24:29;;;;;;;4.85;1.33;;;18.30;63.30;;;;;;5048708;28;20049;-64
2022/07/22 06:26:54;;;;;;;4.53;1.50;;;18.30;63.30;;;;;;5026933;28;20111;-64
2022/07/22 06:29:20;;;;;;;5.72;1.83;;;18.40;63.30;;;;;;5048163;28;20122;-64
2022/07/22 06:31:46;;;;;;;3.35;1.00;;;18.40;63.30;;;;;;5049855;28;20110;-64
2022/07/22 06:34:11;;;;;;;4.88;1.40;;;18.40;63.20;;;;;;5048167;28;20049;-64
2022/07/22 06:36:37;;;;;;;4.65;1.30;;;18.40;63.20;;;;;;5049419;28;20049;-64
2022/07/22 06:39:03;;;;;;;2.88;1.48;;;18.40;63.20;;;;;;5049420;28;20045;-64
2022/07/22 06:41:29;;;;;;;3.83;1.25;;;18.40;63.10;;;;;;5049459;28;20044;-65
2022/07/22 06:43:54;;;;;;;5.57;1.40;;;18.40;63.10;;;;;;5048909;28;20452;-65
2022/07/22 06:46:20;;;;;;;2.75;1.05;;;18.50;63.10;;;;;;5048481;28;20077;-63
2022/07/22 06:48:45;;;;;;;5.55;1.38;;;18.40;62.90;;;;;;5048902;28;20036;-63
2022/07/22 06:51:11;;;;;;;5.03;1.50;;;18.50;62.70;;;;;;5032348;28;20048;-64
2022/07/22 06:53:37;;;;;;;4.20;1.40;;;18.50;62.40;;;;;;5047387;28;20124;-63
2022/07/22 06:56:03;;;;;;;3.50;1.30;;;18.50;62.60;;;;;;5046624;28;20041;-64
2022/07/22 06:58:28;;;;;;;6.60;1.40;;;18.50;62.40;;;;;;5048455;28;20420;-64
2022/07/22 07:00:54;;;;;;;5.43;1.23;;;18.50;62.40;;;;;;5047925;28;20044;-64
2022/07/22 07:03:21;;;;;;;4.13;1.30;;;18.50;62.30;;;;;;5052332;28;20060;-65
2022/07/22 07:05:47;;;;;;;2.80;1.15;;;18.50;62.00;;;;;;5031506;28;20049;-64
2022/07/22 07:08:13;;;;;;;6.55;1.65;;;18.60;61.80;;;;;;5049960;28;20044;-64
2022/07/22 07:10:39;;;;;;;5.28;1.40;;;18.60;61.80;;;;;;5032623;28;20782;-64
2022/07/22 07:13:05;;;;;;;3.35;0.98;;;18.60;61.80;;;;;;5048006;28;20092;-64
2022/07/22 07:15:31;;;;;;;3.60;1.58;;;18.70;61.80;;;;;;5049823;28;20040;-64
2022/07/22 07:17:57;;;;;;;4.80;1.38;;;18.70;61.80;;;;;;5047677;28;20513;-64
2022/07/22 07:20:23;;;;;;;3.05;1.17;;;18.70;61.30;;;;;;5031374;28;20068;-64
2022/07/22 07:22:49;;;;;;;3.83;1.17;;;18.80;61.30;;;;;;5046782;28;20429;-65
2022/07/22 07:25:15;;;;;;;3.33;1.05;;;18.80;61.30;;;;;;5046738;28;20984;-64
2022/07/22 07:27:41;;;;;;;2.78;1.25;;;18.80;61.10;;;;;;5049240;28;20155;-65
2022/07/22 07:30:08;;;;;;;4.43;1.30;;;18.90;60.70;;;;;;5031607;28;20067;-65
2022/07/22 07:32:34;;;;;;;3.88;1.35;;;18.90;60.30;;;;;;5048846;28;20116;-64
2022/07/22 07:35:02;;;;;;;3.50;1.10;;;18.90;60.00;;;;;;5047884;28;20053;-65
2022/07/22 07:37:28;;;;;;;5.47;1.35;;;19.00;60.00;;;;;;5058111;28;20065;-65
2022/07/22 07:39:53;;;;;;;4.72;1.75;;;19.00;59.70;;;;;;5047818;28;20061;-70
2022/07/22 07:42:19;;;;;;;4.38;1.23;;;19.00;59.50;;;;;;5046855;28;20048;-69
2022/07/22 07:44:45;;;;;;;3.28;1.20;;;19.00;59.40;;;;;;5049333;28;20048;-69
2022/07/22 07:47:12;;;;;;;2.53;0.93;;;19.00;59.30;;;;;;5048060;28;20048;-69
2022/07/22 07:49:37;;;;;;;3.85;1.00;;;19.10;59.30;;;;;;5048268;28;20070;-70
2022/07/22 07:52:03;;;;;;;4.55;1.50;;;19.10;58.70;;;;;;5045910;28;20086;-69
2022/07/22 07:54:29;;;;;;;4.38;1.10;;;19.20;58.80;;;;;;5047677;28;20091;-69
2022/07/22 07:56:55;;;;;;;6.50;1.40;;;19.20;59.00;;;;;;5048468;28;20029;-69
2022/07/22 07:59:20;;;;;;;5.75;1.38;;;19.30;59.10;;;;;;5048107;28;20048;-69
2022/07/22 08:01:46;;;;;;;4.60;1.55;;;19.30;59.00;;;;;;5030598;28;20052;-69
2022/07/22 08:04:12;;;;;;;7.25;1.60;;;19.40;59.00;;;;;;5048192;28;20053;-69
2022/07/22 08:06:38;;;;;;;5.55;1.10;;;19.40;58.80;;;;;;5047634;28;20040;-69
2022/07/22 08:09:04;;;;;;;6.07;1.63;;;19.40;58.70;;;;;;5051320;28;20052;-70
2022/07/22 08:11:30;;;;;;;3.75;1.10;;;19.50;58.60;;;;;;5048085;28;20037;-70
2022/07/22 08:13:55;;;;;;;4.68;1.30;;;19.50;58.30;;;;;;5031689;28;20037;-70
2022/07/22 08:16:21;;;;;;;3.28;0.93;;;19.50;58.10;;;;;;5049122;28;20047;-70
2022/07/22 08:18:47;;;;;;;4.97;1.33;;;19.50;58.10;;;;;;5064495;28;20033;-69
2022/07/22 08:21:12;;;;;;;3.45;1.20;;;19.50;58.10;;;;;;5050478;28;20131;-69
2022/07/22 08:23:38;;;;;;;3.10;0.90;;;19.60;58.10;;;;;;5044512;28;20041;-69
2022/07/22 08:26:04;;;;;;;2.75;1.25;;;19.60;57.90;;;;;;5051512;28;20041;-69
2022/07/22 08:28:30;;;;;;;3.50;1.48;;;19.60;58.00;;;;;;5051033;28;20132;-66
2022/07/22 08:30:55;;;;;;;3.92;1.27;;;19.50;58.00;;;;;;5051765;28;20053;-68
2022/07/22 08:33:21;;;;;;;5.80;1.40;;;19.60;58.10;;;;;;5049143;28;20413;-68
2022/07/22 08:35:47;;;;;;;3.22;1.30;;;19.60;58.20;;;;;;5051180;28;20114;-70
2022/07/22 08:38:13;;;;;;;4.50;1.55;;;19.60;58.20;;;;;;5052134;28;20041;-68
2022/07/22 08:40:38;;;;;;;3.55;1.10;;;19.60;58.10;;;;;;5051566;28;20037;-69
2022/07/22 08:43:04;;;;;;;4.28;1.10;;;19.60;58.00;;;;;;5051419;28;20044;-69
2022/07/22 08:45:31;;;;;;;4.05;1.35;;;19.50;57.80;;;;;;5051368;28;20486;-69
2022/07/22 08:47:58;;;;;;;2.55;1.17;;;19.50;57.60;;;;;;5051587;28;20041;-69
2022/07/22 08:50:25;;;;;;;3.70;1.15;;;19.60;57.70;;;;;;5035316;28;20410;-69
2022/07/22 08:52:50;;;;;;;3.58;1.20;;;19.50;57.90;;;;;;5051364;28;20433;-69
2022/07/22 08:55:16;;;;;;;5.43;1.88;;;19.50;57.60;;;;;;5051354;28;20041;-70
2022/07/22 08:57:48;;;;;;;7.47;1.55;;;19.50;57.60;;;;;;5040864;28;20038;-69
2022/07/22 09:00:20;;;;;;;3.58;1.05;;;19.60;57.60;;;;;;5045336;28;20145;-69
2022/07/22 09:02:46;;;;;;;5.15;1.23;;;19.50;57.70;;;;;;5056453;28;20057;-69
2022/07/22 09:05:14;;;;;;;4.05;1.70;;;19.50;57.60;;;;;;5054402;28;20049;-69
2022/07/22 09:07:42;;;;;;;3.75;1.20;;;19.60;57.90;;;;;;5052989;28;20083;-70
2022/07/22 09:10:31;;;;;;;5.57;1.30;;;19.60;58.20;;;;;;5055469;28;20536;-69
2022/07/22 09:13:16;;;;;;;4.28;1.20;;;19.60;58.00;;;;;;5051845;28;20102;-69
2022/07/22 09:15:54;;;;;;;2.53;1.05;;;19.60;57.80;;;;;;5034985;28;20637;-68
2022/07/22 09:18:20;;;;;;;4.72;1.20;;;19.70;57.70;;;;;;5037493;28;20090;-70
2022/07/22 09:20:46;;;;;;;4.82;1.25;;;19.70;57.80;;;;;;5054750;28;20036;-70
2022/07/22 09:23:21;;;;;;;2.63;1.00;;;19.80;57.80;;;;;;5054198;28;20512;-70
2022/07/22 09:25:48;;;;;;;4.28;1.08;;;19.80;57.60;;;;;;5053101;28;20122;-69
2022/07/22 09:28:17;;;;;;;4.15;1.58;;;19.90;57.40;;;;;;5054886;28;20524;-69
2022/07/22 09:30:47;;;;;;;3.38;0.95;;;19.90;57.20;;;;;;5063992;28;20102;-69
2022/07/22 09:33:13;;;;;;;3.17;1.00;;;20.00;57.20;;;;;;5053771;28;20053;-69
2022/07/22 09:35:39;;;;;;;3.40;1.00;;;20.00;56.90;;;;;;5051176;28;20375;-69
2022/07/22 09:38:08;;;;;;;2.35;0.90;;;20.00;56.60;;;;;;5034846;28;20099;-68
2022/07/22 09:40:39;;;;;;;4.35;1.08;;;20.00;56.20;;;;;;5053575;28;20040;-70
2022/07/22 09:43:07;;;;;;;3.42;1.10;;;20.10;56.20;;;;;;5055609;28;20048;-69
2022/07/22 09:45:33;;;;;;;3.17;0.70;;;20.10;56.40;;;;;;5054095;28;20045;-69
2022/07/22 09:48:01;;;;;;;5.63;1.38;;;20.10;56.60;;;;;;5054365;28;20090;-69
2022/07/22 09:50:32;;;;;;;1.38;0.82;;;20.10;56.60;;;;;;5055488;28;20389;-69
2022/07/22 09:52:59;;;;;;;3.97;0.80;;;20.10;56.60;;;;;;5054443;28;20032;-69
2022/07/22 09:55:26;;;;;;;5.60;1.30;;;20.10;56.70;;;;;;5035131;28;20052;-69
2022/07/22 09:57:52;;;;;;;2.95;0.80;;;20.10;56.60;;;;;;5054022;28;20040;-69
2022/07/22 10:00:22;;;;;;;4.28;0.93;;;20.10;56.50;;;;;;5053804;28;20041;-69
2022/07/22 10:03:00;;;;;;;2.10;0.75;;;20.10;56.90;;;;;;5062392;28;20064;-69
2022/07/22 10:05:31;;;;;;;2.80;0.70;;;20.10;57.10;;;;;;5053071;28;20474;-69
2022/07/22 10:07:57;;;;;;;3.13;0.90;;;20.10;56.80;;;;;;5048048;28;20095;-69
2022/07/22 10:10:25;;;;;;;3.38;0.95;;;20.00;56.90;;;;;;5050876;28;20033;-68
2022/07/22 10:12:53;;;;;;;3.25;0.90;;;20.00;56.70;;;;;;5053567;28;20055;-68
2022/07/22 10:15:21;;;;;;;2.20;0.60;;;20.00;57.00;;;;;;5054463;28;20125;-68
2022/07/22 10:17:49;;;;;;;5.18;0.85;;;19.90;57.20;;;;;;5053373;28;20048;-68
2022/07/22 10:20:25;;;;;;;2.90;0.80;;;19.90;55.90;;;;;;5053000;28;20048;-68
2022/07/22 10:22:56;;;;;;;1.42;0.57;;;19.90;55.60;;;;;;5054357;28;20123;-69
2022/07/22 10:25:26;;;;;;;1.95;0.80;;;19.80;56.00;;;;;;5052798;28;20409;-68
2022/07/22 10:28:04;;;;;;;2.63;0.90;;;19.80;56.70;;;;;;5053660;28;20640;-68
2022/07/22 10:30:33;;;;;;;2.72;0.90;;;19.90;56.90;;;;;;5051855;28;20048;-68
2022/07/22 10:33:02;;;;;;;2.45;0.65;;;19.80;56.40;;;;;;5052446;28;20052;-68
2022/07/22 10:35:29;;;;;;;3.63;0.90;;;19.80;56.70;;;;;;5048947;28;20482;-69
2022/07/22 10:37:56;;;;;;;5.60;1.00;;;19.90;56.90;;;;;;5052752;28;20048;-69
2022/07/22 10:40:29;;;;;;;1.30;0.80;;;19.90;57.00;;;;;;5020282;28;20037;-68
2022/07/22 10:42:58;;;;;;;2.20;0.88;;;19.90;56.90;;;;;;5053031;28;20041;-68
2022/07/22 10:45:30;;;;;;;3.78;0.90;;;20.00;56.50;;;;;;5052773;28;20391;-68
2022/07/22 10:47:58;;;;;;;3.60;0.70;;;20.00;56.50;;;;;;5033057;28;20494;-68
2022/07/22 10:50:37;;;;;;;4.43;0.63;;;20.10;57.00;;;;;;5044947;28;20048;-68
2022/07/22 10:53:07;;;;;;;3.35;1.00;;;20.10;56.90;;;;;;5036496;28;20402;-68
2022/07/22 10:55:34;;;;;;;2.72;0.80;;;20.20;56.80;;;;;;5053610;28;20052;-69
2022/07/22 10:58:00;;;;;;;2.03;0.70;;;20.30;56.90;;;;;;5052725;28;20616;-69
2022/07/22 11:00:26;;;;;;;2.35;0.90;;;20.30;56.80;;;;;;5053561;28;20043;-70
2022/07/22 11:02:52;;;;;;;1.70;0.80;;;20.40;56.70;;;;;;5053789;28;20049;-69
2022/07/22 11:05:30;;;;;;;3.47;0.80;;;20.50;56.40;;;;;;5052629;28;20110;-69
2022/07/22 11:07:55;;;;;;;5.55;0.90;;;20.60;56.30;;;;;;5052961;28;20076;-68
2022/07/22 11:10:21;;;;;;;3.65;0.82;;;20.60;55.60;;;;;;5052001;28;20541;-69
2022/07/22 11:12:49;;;;;;;2.67;0.63;;;20.70;55.80;;;;;;5035753;28;20375;-68
2022/07/22 11:15:15;;;;;;;1.80;0.90;;;20.70;56.20;;;;;;5052193;28;20087;-68
2022/07/22 11:17:41;;;;;;;3.40;0.95;;;20.80;55.50;;;;;;5052912;28;20115;-68
2022/07/22 11:20:10;;;;;;;3.20;0.70;;;20.90;55.80;;;;;;5051543;28;20029;-68
2022/07/22 11:22:37;;;;;;;3.03;0.73;;;20.90;55.70;;;;;;5052258;28;20038;-68
2022/07/22 11:25:10;;;;;;;2.47;0.70;;;21.00;55.70;;;;;;5052228;28;20049;-68
2022/07/22 11:27:36;;;;;;;1.88;0.70;;;21.00;55.50;;;;;;5051727;28;20536;-65
2022/07/22 11:30:06;;;;;;;1.95;0.65;;;21.10;55.50;;;;;;5051557;28;20128;-65
2022/07/22 11:32:32;;;;;;;2.28;0.73;;;21.10;55.50;;;;;;5050238;28;20045;-65
2022/07/22 11:34:59;;;;;;;4.47;1.00;;;21.20;55.40;;;;;;5040611;28;20037;-65
2022/07/22 11:37:26;;;;;;;2.85;0.93;;;21.20;55.20;;;;;;5051504;28;20382;-66
2022/07/22 11:39:59;;;;;;;3.28;0.82;;;21.20;54.90;;;;;;5061292;28;20049;-65
2022/07/22 11:42:25;;;;;;;2.53;0.80;;;21.20;54.50;;;;;;5048502;28;20040;-65
2022/07/22 11:44:51;;;;;;;4.22;0.90;;;21.20;54.70;;;;;;5051737;28;20044;-66
2022/07/22 11:47:17;;;;;;;5.00;0.70;;;21.20;54.80;;;;;;5051447;28;20040;-66
2022/07/22 11:49:47;;;;;;;1.52;0.73;;;21.20;54.80;;;;;;5015252;28;20479;-65
2022/07/22 11:52:13;;;;;;;2.80;0.70;;;21.20;54.40;;;;;;5049857;28;20514;-65
2022/07/22 11:54:43;;;;;;;2.75;0.70;;;21.20;54.20;;;;;;5051135;28;20070;-66
2022/07/22 11:57:09;;;;;;;1.63;0.63;;;21.30;54.20;;;;;;5051977;28;20041;-65
2022/07/22 11:59:35;;;;;;;2.08;0.82;;;21.20;54.30;;;;;;5051735;28;20041;-65
2022/07/22 12:02:04;;;;;;;2.28;0.88;;;21.30;54.30;;;;;;5050537;28;20056;-65
2022/07/22 12:04:32;;;;;;;2.08;0.80;;;21.30;54.20;;;;;;5051291;28;20053;-65
2022/07/22 12:07:01;;;;;;;2.10;0.57;;;21.30;54.40;;;;;;5060044;28;20085;-65
2022/07/22 12:09:31;;;;;;;3.08;1.00;;;21.30;54.40;;;;;;5051565;28;20051;-65
2022/07/22 12:11:57;;;;;;;1.50;0.73;;;21.30;54.10;;;;;;5051017;28;20037;-65
2022/07/22 12:14:26;;;;;;;2.47;0.73;;;21.30;54.00;;;;;;5052038;28;20040;-65
2022/07/22 12:17:03;;;;;;;2.08;0.82;;;21.30;54.10;;;;;;5052258;28;20041;-65
2022/07/22 12:19:31;;;;;;;3.88;1.20;;;21.30;54.00;;;;;;5052492;28;20037;-65
2022/07/22 12:22:01;;;;;;;2.22;0.70;;;21.30;53.90;;;;;;5050566;28;20482;-65
2022/07/22 12:24:37;;;;;;;2.33;0.77;;;21.40;54.10;;;;;;5050950;28;20048;-65
2022/07/22 12:27:08;;;;;;;3.20;0.82;;;21.40;54.30;;;;;;5051068;28;20501;-65
2022/07/22 12:29:37;;;;;;;1.33;0.70;;;21.50;54.40;;;;;;5051071;28;20120;-65
2022/07/22 12:32:03;;;;;;;2.53;0.80;;;21.50;54.10;;;;;;5050461;28;20390;-63
2022/07/22 12:34:29;;;;;;;2.08;0.70;;;21.50;54.10;;;;;;5050716;28;20037;-65
2022/07/22 12:36:56;;;;;;;2.22;1.05;;;21.60;54.40;;;;;;5050228;28;20037;-65
2022/07/22 12:39:22;;;;;;;1.52;0.80;;;21.60;53.90;;;;;;5049595;28;20041;-66
2022/07/22 12:41:53;;;;;;;2.80;0.77;;;21.60;53.80;;;;;;5051824;28;20399;-65
2022/07/22 12:44:24;;;;;;;1.35;0.50;;;21.60;53.90;;;;;;5051891;28;20616;-65
2022/07/22 12:46:52;;;;;;;3.40;0.73;;;21.70;53.90;;;;;;5067709;28;20055;-65